createdAt,value
2023-01-17T00:02:21.464Z,92394.16
2023-01-17T00:05:14.958Z,92396.84
2023-01-17T00:08:01.073Z,92419.50
2023-01-17T00:10:29.135Z,92424.25
2023-01-17T00:13:01.002Z,92420.03
2023-01-17T00:15:30.976Z,92416.38
2023-01-17T00:17:59.160Z,92413.22
2023-01-17T00:20:48.173Z,92403.19
2023-01-17T00:23:42.075Z,92396.34
2023-01-17T00:26:18.322Z,92402.13
2023-01-17T00:28:46.687Z,92419.81
2023-01-17T00:31:15.213Z,92421.09
2023-01-17T00:33:43.061Z,92457.44
2023-01-17T00:36:11.542Z,92449.00
2023-01-17T00:38:40.295Z,92440.56
2023-01-17T00:41:15.213Z,92437.94
2023-01-17T00:44:01.440Z,92434.50
2023-01-17T00:46:47.257Z,92433.19
2023-01-17T00:49:33.392Z,92439.53
2023-01-17T00:52:19.886Z,92448.75
2023-01-17T00:55:05.807Z,92452.44
2023-01-17T00:57:51.422Z,92464.84
2023-01-17T01:00:38.145Z,92466.16
2023-01-17T01:03:30.230Z,92452.19
2023-01-17T01:06:16.847Z,92459.03
2023-01-17T01:09:02.483Z,92456.41
2023-01-17T01:11:49.148Z,92448.75
2023-01-17T01:14:34.787Z,92455.88
2023-01-17T01:17:21.220Z,92448.78
2023-01-17T01:20:07.222Z,92443.78
2023-01-17T01:22:53.364Z,92437.19
2023-01-17T01:25:39.149Z,92454.84
2023-01-17T01:28:28.793Z,92463.28
2023-01-17T01:31:14.487Z,92452.22
2023-01-17T01:33:43.135Z,92455.91
2023-01-17T01:36:10.418Z,92457.47
2023-01-17T01:38:38.145Z,92437.72
2023-01-17T01:41:05.848Z,92457.47
2023-01-17T01:43:44.885Z,92455.34
2023-01-17T01:46:19.009Z,92450.63
2023-01-17T01:48:49.151Z,92460.13
2023-01-17T01:51:22.593Z,92459.03
2023-01-17T01:53:53.973Z,92464.31
2023-01-17T01:56:23.579Z,92459.03
2023-01-17T01:58:53.233Z,92464.84
2023-01-17T02:01:20.826Z,92449.56
2023-01-17T02:03:49.423Z,92464.84
2023-01-17T02:06:30.463Z,92461.16
2023-01-17T02:09:02.564Z,92465.38
2023-01-17T02:11:30.527Z,92465.09
2023-01-17T02:13:57.973Z,92448.22
2023-01-17T02:16:44.216Z,92459.56
2023-01-17T02:19:31.082Z,92451.13
2023-01-17T02:22:15.737Z,92446.91
2023-01-17T02:25:15.167Z,92442.16
2023-01-17T02:28:06.870Z,92445.06
2023-01-17T02:30:42.125Z,92461.66
2023-01-17T02:33:20.785Z,92454.06
2023-01-17T02:36:07.805Z,92461.16
2023-01-17T02:39:03.920Z,92454.03
2023-01-17T02:41:39.316Z,92437.72
2023-01-17T02:44:10.159Z,92460.91
2023-01-17T02:46:52.019Z,92468.28
2023-01-17T02:49:22.311Z,92459.53
2023-01-17T02:52:26.889Z,92463.25
2023-01-17T02:55:22.798Z,92459.56
2023-01-17T02:58:02.527Z,92472.75
2023-01-17T03:00:43.763Z,92468.28
2023-01-17T03:03:20.256Z,92487.69
2023-01-17T03:06:11.877Z,92488.75
2023-01-17T03:08:43.109Z,92489.78
2023-01-17T03:11:11.215Z,92496.13
2023-01-17T03:13:39.054Z,92482.19
2023-01-17T03:16:28.181Z,92492.19
2023-01-17T03:18:55.694Z,92495.88
2023-01-17T03:21:24.102Z,92486.41
2023-01-17T03:23:51.851Z,92493.25
2023-01-17T03:26:19.251Z,92488.47
2023-01-17T03:28:46.877Z,92486.84
2023-01-17T03:31:16.124Z,92482.66
2023-01-17T03:33:44.008Z,92492.09
2023-01-17T03:36:12.289Z,92495.25
2023-01-17T03:38:39.997Z,92488.13
2023-01-17T03:41:07.722Z,92492.63
2023-01-17T03:43:38.993Z,92492.09
2023-01-17T03:46:17.465Z,92488.91
2023-01-17T03:48:45.054Z,92481.03
2023-01-17T03:51:12.195Z,92486.53
2023-01-17T03:53:39.633Z,92483.13
2023-01-17T03:56:07.212Z,92479.97
2023-01-17T03:58:34.731Z,92482.84
2023-01-17T04:01:02.086Z,92481.56
2023-01-17T04:03:32.356Z,92477.88
2023-01-17T04:05:59.575Z,92490.22
2023-01-17T04:08:27.168Z,92489.72
2023-01-17T04:10:54.276Z,92489.72
2023-01-17T04:13:21.792Z,92483.13
2023-01-17T04:15:51.505Z,92489.19
2023-01-17T04:18:20.611Z,92495.50
2023-01-17T04:20:48.080Z,92491.75
2023-01-17T04:23:15.617Z,92488.34
2023-01-17T04:25:42.819Z,92498.03
2023-01-17T04:28:13.444Z,92492.28
2023-01-17T04:30:40.749Z,92476.72
2023-01-17T04:33:08.291Z,92487.03
2023-01-17T04:35:36.127Z,92482.84
2023-01-17T04:38:03.728Z,92478.94
2023-01-17T04:40:30.902Z,92483.94
2023-01-17T04:42:58.879Z,92493.44
2023-01-17T04:45:26.284Z,92482.63
2023-01-17T04:47:53.742Z,92479.75
2023-01-17T04:50:20.939Z,92490.56
2023-01-17T04:52:48.492Z,92483.19
2023-01-17T04:55:15.796Z,92492.94
2023-01-17T04:57:43.385Z,92489.22
2023-01-17T05:00:11.868Z,92480.53
2023-01-17T05:02:39.953Z,92493.72
2023-01-17T05:05:07.881Z,92490.56
2023-01-17T05:07:35.917Z,92503.19
2023-01-17T05:10:03.476Z,92480.81
2023-01-17T05:12:31.256Z,92474.22
2023-01-17T05:14:58.439Z,92473.22
2023-01-17T05:17:25.897Z,92461.09
2023-01-17T05:19:53.078Z,92465.31
2023-01-17T05:22:20.587Z,92457.69
2023-01-17T05:24:51.029Z,92458.22
2023-01-17T05:27:18.502Z,92464.53
2023-01-17T05:29:45.777Z,92473.19
2023-01-17T05:32:13.252Z,92466.09
2023-01-17T05:34:40.447Z,92471.88
2023-01-17T05:37:07.905Z,92479.00
2023-01-17T05:39:35.012Z,92479.25
2023-01-17T05:42:02.530Z,92477.94
2023-01-17T05:44:29.753Z,92473.47
2023-01-17T05:46:57.218Z,92465.88
2023-01-17T05:49:24.483Z,92478.50
2023-01-17T05:51:54.686Z,92475.34
2023-01-17T05:54:22.080Z,92474.28
2023-01-17T05:56:49.611Z,92479.03
2023-01-17T05:59:28.595Z,92473.78
2023-01-17T06:02:03.776Z,92474.84
2023-01-17T06:04:31.154Z,92474.84
2023-01-17T06:06:58.715Z,92479.06
2023-01-17T06:09:25.891Z,92477.72
2023-01-17T06:11:53.349Z,92475.38
2023-01-17T06:14:20.479Z,92470.34
2023-01-17T06:16:48.043Z,92472.75
2023-01-17T06:19:15.189Z,92471.41
2023-01-17T06:21:42.665Z,92470.63
2023-01-17T06:24:09.811Z,92473.00
2023-01-17T06:26:37.299Z,92467.22
2023-01-17T06:29:04.555Z,92464.59
2023-01-17T06:31:32.195Z,92479.06
2023-01-17T06:34:03.263Z,92484.31
2023-01-17T06:36:32.954Z,92477.75
2023-01-17T06:39:00.142Z,92481.69
2023-01-17T06:41:27.829Z,92469.31
2023-01-17T06:43:55.832Z,92475.38
2023-01-17T06:46:23.567Z,92472.19
2023-01-17T06:48:50.775Z,92477.47
2023-01-17T06:51:18.453Z,92481.69
2023-01-17T06:53:45.665Z,92478.28
2023-01-17T06:56:13.194Z,92479.06
2023-01-17T06:58:40.796Z,92479.56
2023-01-17T07:01:13.065Z,92478.50
2023-01-17T07:03:40.489Z,92483.81
2023-01-17T07:06:09.697Z,92483.53
2023-01-17T07:08:37.449Z,92496.94
2023-01-17T07:11:08.078Z,92487.97
2023-01-17T07:13:36.877Z,92489.03
2023-01-17T07:16:05.198Z,92485.06
2023-01-17T07:18:33.383Z,92492.47
2023-01-17T07:21:01.273Z,92483.78
2023-01-17T07:23:31.331Z,92494.03
2023-01-17T07:26:00.660Z,92499.00
2023-01-17T07:28:28.853Z,92509.03
2023-01-17T07:30:56.782Z,92503.47
2023-01-17T07:33:24.267Z,92494.53
2023-01-17T07:35:51.811Z,92498.44
2023-01-17T07:38:20.246Z,92493.69
2023-01-17T07:40:47.721Z,92499.47
2023-01-17T07:43:15.052Z,92505.50
2023-01-17T07:45:44.694Z,92511.28
2023-01-17T07:48:12.668Z,92512.56
2023-01-17T07:50:40.403Z,92518.38
2023-01-17T07:53:07.856Z,92500.97
2023-01-17T07:55:35.640Z,92513.09
2023-01-17T07:58:03.250Z,92517.25
2023-01-17T08:00:30.941Z,92522.53
2023-01-17T08:03:00.165Z,92521.72
2023-01-17T08:05:30.835Z,92523.31
2023-01-17T08:07:58.085Z,92522.03
2023-01-17T08:10:25.617Z,92517.81
2023-01-17T08:12:53.051Z,92531.22
2023-01-17T08:15:20.603Z,92533.59
2023-01-17T08:17:49.676Z,92528.59
2023-01-17T08:20:17.296Z,92547.06
2023-01-17T08:22:44.549Z,92551.03
2023-01-17T08:25:12.846Z,92547.34
2023-01-17T08:27:40.356Z,92541.78
2023-01-17T08:30:09.102Z,92550.97
2023-01-17T08:32:36.336Z,92565.25
2023-01-17T08:35:04.011Z,92562.06
2023-01-17T08:37:31.217Z,92571.00
2023-01-17T08:39:58.732Z,92565.19
2023-01-17T08:42:26.166Z,92564.91
2023-01-17T08:44:53.763Z,92575.22
2023-01-17T08:47:20.989Z,92578.66
2023-01-17T08:49:48.517Z,92561.50
2023-01-17T08:52:15.828Z,92586.75
2023-01-17T08:54:43.301Z,92591.16
2023-01-17T08:57:10.607Z,92594.56
2023-01-17T08:59:38.176Z,92592.88
2023-01-17T09:02:14.950Z,92595.19
2023-01-17T09:04:50.114Z,92589.50
2023-01-17T09:07:19.429Z,92598.47
2023-01-17T09:09:47.471Z,92591.56
2023-01-17T09:12:14.948Z,92593.09
2023-01-17T09:14:42.468Z,92585.81
2023-01-17T09:17:09.850Z,92579.47
2023-01-17T09:19:39.761Z,92584.09
2023-01-17T09:22:08.032Z,92578.94
2023-01-17T09:24:36.548Z,92573.78
2023-01-17T09:27:04.299Z,92564.09
2023-01-17T09:29:32.415Z,92581.75
2023-01-17T09:32:00.978Z,92579.78
2023-01-17T09:34:28.726Z,92577.06
2023-01-17T09:36:57.112Z,92582.97
2023-01-17T09:39:24.847Z,92586.81
2023-01-17T09:42:17.086Z,92586.47
2023-01-17T09:44:53.353Z,92594.84
2023-01-17T09:47:45.258Z,92604.69
2023-01-17T09:50:31.779Z,92604.00
2023-01-17T09:53:03.969Z,92593.44
2023-01-17T09:55:37.395Z,92593.44
2023-01-17T09:58:21.570Z,92578.34
2023-01-17T10:01:10.383Z,92581.22
2023-01-17T10:03:51.206Z,92579.50
2023-01-17T10:06:39.790Z,92590.13
2023-01-17T10:09:42.294Z,92588.59
2023-01-17T10:12:19.260Z,92583.50
2023-01-17T10:14:58.522Z,92592.28
2023-01-17T10:17:32.103Z,92576.22
2023-01-17T10:20:26.798Z,92584.66
2023-01-17T10:23:11.747Z,92581.50
2023-01-17T10:25:43.172Z,92584.34
2023-01-17T10:28:17.926Z,92583.47
2023-01-17T10:30:49.553Z,92581.84
2023-01-17T10:33:27.158Z,92578.56
2023-01-17T10:35:59.325Z,92593.25
2023-01-17T10:38:35.238Z,92595.84
2023-01-17T10:41:14.959Z,92581.34
2023-01-17T10:44:02.109Z,92591.56
2023-01-17T10:46:38.625Z,92605.28
2023-01-17T10:49:17.427Z,92600.59
2023-01-17T10:52:00.411Z,92588.97
2023-01-17T10:54:38.403Z,92589.88
2023-01-17T10:57:05.791Z,92579.41
2023-01-17T10:59:35.401Z,92561.00
2023-01-17T11:02:10.587Z,92569.19
2023-01-17T11:04:41.319Z,92551.69
2023-01-17T11:07:17.647Z,92550.28
2023-01-17T11:09:57.100Z,92553.03
2023-01-17T11:12:41.221Z,92545.66
2023-01-17T11:15:08.811Z,92542.75
2023-01-17T11:17:53.258Z,92530.38
2023-01-17T11:20:32.937Z,92525.50
2023-01-17T11:23:15.347Z,92528.31
2023-01-17T11:26:02.579Z,92536.22
2023-01-17T11:28:35.632Z,92533.25
2023-01-17T11:31:08.043Z,92549.50
2023-01-17T11:33:45.362Z,92544.88
2023-01-17T11:36:40.667Z,92556.44
2023-01-17T11:39:19.854Z,92555.97
2023-01-17T11:41:48.385Z,92558.50
2023-01-17T11:44:33.252Z,92567.59
2023-01-17T11:47:06.954Z,92557.63
2023-01-17T11:49:34.384Z,92554.00
2023-01-17T11:52:19.448Z,92555.03
2023-01-17T11:54:48.821Z,92553.97
2023-01-17T11:57:35.385Z,92554.19
2023-01-17T12:00:12.131Z,92571.47
2023-01-17T12:03:17.155Z,92568.38
2023-01-17T12:06:09.398Z,92565.44
2023-01-17T12:08:43.913Z,92546.56
2023-01-17T12:11:26.533Z,92544.44
2023-01-17T12:14:15.226Z,92545.88
2023-01-17T12:16:52.360Z,92550.56
2023-01-17T12:19:39.088Z,92540.81
2023-01-17T12:22:29.592Z,92537.19
2023-01-17T12:25:15.726Z,92540.69
2023-01-17T12:27:57.755Z,92531.75
2023-01-17T12:30:46.599Z,92530.47
2023-01-17T12:33:20.927Z,92536.22
2023-01-17T12:35:53.688Z,92539.66
2023-01-17T12:38:32.901Z,92538.22
2023-01-17T12:41:10.432Z,92532.97
2023-01-17T12:43:41.282Z,92529.50
2023-01-17T12:46:21.187Z,92531.97
2023-01-17T12:48:57.278Z,92533.47
2023-01-17T12:51:33.134Z,92531.41
2023-01-17T12:54:12.549Z,92541.78
2023-01-17T12:56:49.277Z,92549.09
2023-01-17T12:59:29.499Z,92556.31
2023-01-17T13:02:01.605Z,92552.72
2023-01-17T13:04:57.413Z,92561.19
2023-01-17T13:07:28.902Z,92570.25
2023-01-17T13:10:05.453Z,92574.94
2023-01-17T13:12:34.878Z,92578.03
2023-01-17T13:15:10.160Z,92596.88
2023-01-17T13:17:49.536Z,92605.88
2023-01-17T13:20:27.252Z,92593.41
2023-01-17T13:23:03.635Z,92596.03
2023-01-17T13:25:49.955Z,92619.69
2023-01-17T13:28:42.088Z,92625.06
2023-01-17T13:31:25.664Z,92621.84
2023-01-17T13:34:11.847Z,92617.69
2023-01-17T13:36:46.041Z,92637.28
2023-01-17T13:39:33.287Z,92645.84
2023-01-17T13:42:41.692Z,92644.84
2023-01-17T13:45:20.984Z,92662.63
2023-01-17T13:47:48.555Z,92644.75
2023-01-17T13:50:40.836Z,92669.38
2023-01-17T13:53:35.952Z,92661.41
2023-01-17T13:56:13.846Z,92662.38
2023-01-17T13:58:57.838Z,92667.00
2023-01-17T14:01:25.446Z,92668.72
2023-01-17T14:03:52.789Z,92669.22
2023-01-17T14:06:30.519Z,92662.38
2023-01-17T14:09:12.885Z,92664.44
2023-01-17T14:12:11.673Z,92680.00
2023-01-17T14:14:42.009Z,92670.88
2023-01-17T14:17:28.328Z,92666.94
2023-01-17T14:19:57.841Z,92672.41
2023-01-17T14:22:28.229Z,92675.47
2023-01-17T14:25:01.468Z,92668.34
2023-01-17T14:27:39.240Z,92678.47
2023-01-17T14:30:20.691Z,92674.25
2023-01-17T14:33:08.947Z,92685.81
2023-01-17T14:35:40.627Z,92687.47
2023-01-17T14:38:31.838Z,92694.34
2023-01-17T14:41:03.565Z,92704.34
2023-01-17T14:43:34.933Z,92713.56
2023-01-17T14:46:06.777Z,92720.84
2023-01-17T14:48:35.356Z,92726.34
2023-01-17T14:51:13.172Z,92727.75
2023-01-17T14:53:52.297Z,92717.06
2023-01-17T14:56:19.570Z,92717.41
2023-01-17T14:58:47.071Z,92720.06
2023-01-17T15:01:20.025Z,92727.00
2023-01-17T15:03:51.992Z,92719.22
2023-01-17T15:06:28.120Z,92731.41
2023-01-17T15:08:58.562Z,92728.94
2023-01-17T15:11:30.409Z,92723.72
2023-01-17T15:14:01.873Z,92729.13
2023-01-17T15:16:36.713Z,92733.94
2023-01-17T15:19:15.375Z,92731.84
2023-01-17T15:21:44.655Z,92739.84
2023-01-17T15:24:28.938Z,92735.09
2023-01-17T15:26:56.764Z,92734.88
2023-01-17T15:29:31.103Z,92744.16
2023-01-17T15:32:01.525Z,92745.75
2023-01-17T15:34:36.423Z,92752.34
2023-01-17T15:37:08.916Z,92738.06
2023-01-17T15:39:40.591Z,92723.28
2023-01-17T15:42:20.011Z,92717.75
2023-01-17T15:44:53.816Z,92713.81
2023-01-17T15:47:38.917Z,92707.25
2023-01-17T15:50:23.808Z,92704.06
2023-01-17T15:53:02.744Z,92709.13
2023-01-17T15:55:38.922Z,92703.06
2023-01-17T15:58:28.113Z,92693.56
2023-01-17T16:00:57.244Z,92676.94
2023-01-17T16:03:30.201Z,92675.56
2023-01-17T16:06:00.711Z,92671.91
2023-01-17T16:08:40.281Z,92681.41
2023-01-17T16:11:11.742Z,92676.16
2023-01-17T16:13:42.380Z,92690.94
2023-01-17T16:16:26.999Z,92696.19
2023-01-17T16:19:02.365Z,92689.31
2023-01-17T16:21:31.625Z,92688.78
2023-01-17T16:24:00.195Z,92685.88
2023-01-17T16:26:29.487Z,92674.03
2023-01-17T16:28:57.183Z,92676.13
2023-01-17T16:31:24.968Z,92675.59
2023-01-17T16:33:52.389Z,92680.88
2023-01-17T16:36:21.356Z,92672.16
2023-01-17T16:38:50.480Z,92660.03
2023-01-17T16:41:18.891Z,92661.91
2023-01-17T16:43:46.148Z,92657.69
2023-01-17T16:46:15.127Z,92657.69
2023-01-17T16:48:42.775Z,92652.94
2023-01-17T16:51:10.356Z,92653.47
2023-01-17T16:53:37.870Z,92653.72
2023-01-17T16:56:15.092Z,92656.59
2023-01-17T16:58:42.466Z,92656.66
2023-01-17T17:01:16.023Z,92661.38
2023-01-17T17:03:44.059Z,92659.28
2023-01-17T17:06:12.292Z,92660.88
2023-01-17T17:08:40.119Z,92664.84
2023-01-17T17:11:14.550Z,92633.94
2023-01-17T17:13:43.612Z,92648.19
2023-01-17T17:16:22.943Z,92635.78
2023-01-17T17:19:02.580Z,92641.84
2023-01-17T17:21:32.204Z,92632.34
2023-01-17T17:24:01.969Z,92626.53
2023-01-17T17:26:36.971Z,92624.94
2023-01-17T17:29:05.615Z,92628.09
2023-01-17T17:31:33.675Z,92635.44
2023-01-17T17:34:02.357Z,92644.91
2023-01-17T17:36:30.851Z,92643.53
2023-01-17T17:38:58.563Z,92635.81
2023-01-17T17:41:34.408Z,92633.16
2023-01-17T17:44:03.201Z,92640.28
2023-01-17T17:46:31.953Z,92628.31
2023-01-17T17:48:59.948Z,92626.19
2023-01-17T17:51:33.364Z,92615.06
2023-01-17T17:54:03.095Z,92611.59
2023-01-17T17:56:33.083Z,92613.69
2023-01-17T17:59:01.381Z,92602.00
2023-01-17T18:01:29.069Z,92595.94
2023-01-17T18:04:00.965Z,92598.28
2023-01-17T18:06:28.684Z,92599.63
2023-01-17T18:08:56.007Z,92601.69
2023-01-17T18:11:26.222Z,92592.59
2023-01-17T18:13:55.685Z,92578.34
2023-01-17T18:16:29.526Z,92584.59
2023-01-17T18:18:58.665Z,92584.56
2023-01-17T18:21:29.072Z,92588.19
2023-01-17T18:24:00.005Z,92600.31
2023-01-17T18:26:33.244Z,92601.81
2023-01-17T18:29:01.837Z,92611.00
2023-01-17T18:31:33.737Z,92609.84
2023-01-17T18:34:06.254Z,92591.47
2023-01-17T18:36:35.074Z,92586.00
2023-01-17T18:39:06.085Z,92587.66
2023-01-17T18:41:34.784Z,92563.13
2023-01-17T18:44:06.686Z,92574.78
2023-01-17T18:46:35.173Z,92569.06
2023-01-17T18:49:03.033Z,92570.50
2023-01-17T18:51:34.702Z,92581.53
2023-01-17T18:54:06.990Z,92579.75
2023-01-17T18:56:35.349Z,92592.66
2023-01-17T18:59:05.915Z,92595.47
2023-01-17T19:01:35.930Z,92600.25
2023-01-17T19:04:04.918Z,92599.44
2023-01-17T19:06:37.357Z,92600.38
2023-01-17T19:09:07.352Z,92603.59
2023-01-17T19:11:36.945Z,92607.47
2023-01-17T19:14:05.332Z,92600.25
2023-01-17T19:16:36.415Z,92592.34
2023-01-17T19:19:09.337Z,92599.09
2023-01-17T19:21:40.032Z,92596.72
2023-01-17T19:24:07.443Z,92602.94
2023-01-17T19:26:34.930Z,92600.88
2023-01-17T19:29:06.914Z,92613.78
2023-01-17T19:31:39.822Z,92620.25
2023-01-17T19:34:07.017Z,92633.06
2023-01-17T19:36:37.451Z,92628.94
2023-01-17T19:39:09.482Z,92614.44
2023-01-17T19:41:44.761Z,92617.22
2023-01-17T19:44:13.715Z,92601.69
2023-01-17T19:46:43.251Z,92606.69
2023-01-17T19:49:10.618Z,92592.00
2023-01-17T19:51:39.796Z,92599.59
2023-01-17T19:54:08.579Z,92600.66
2023-01-17T19:56:36.850Z,92594.81
2023-01-17T19:59:04.346Z,92585.56
2023-01-17T20:01:33.693Z,92590.94
2023-01-17T20:04:02.539Z,92588.38
2023-01-17T20:06:33.098Z,92591.44
2023-01-17T20:09:00.339Z,92590.78
2023-01-17T20:11:28.749Z,92585.50
2023-01-17T20:13:57.677Z,92583.06
2023-01-17T20:16:27.491Z,92582.06
2023-01-17T20:18:54.773Z,92590.66
2023-01-17T20:21:24.895Z,92577.25
2023-01-17T20:23:53.707Z,92578.31
2023-01-17T20:26:31.251Z,92568.81
2023-01-17T20:28:58.695Z,92571.22
2023-01-17T20:31:27.069Z,92556.31
2023-01-17T20:33:56.336Z,92539.03
2023-01-17T20:36:26.095Z,92536.34
2023-01-17T20:38:54.608Z,92537.19
2023-01-17T20:41:24.304Z,92512.03
2023-01-17T20:43:54.710Z,92528.28
2023-01-17T20:46:25.673Z,92522.22
2023-01-17T20:48:58.473Z,92516.81
2023-01-17T20:51:27.903Z,92508.06
2023-01-17T20:54:01.037Z,92502.13
2023-01-17T20:56:31.448Z,92493.53
2023-01-17T20:58:58.703Z,92489.59
2023-01-17T21:01:26.333Z,92486.84
2023-01-17T21:03:54.138Z,92480.22
2023-01-17T21:06:24.417Z,92506.28
2023-01-17T21:08:53.355Z,92505.56
2023-01-17T21:11:24.440Z,92502.91
2023-01-17T21:13:51.994Z,92500.63
2023-01-17T21:16:23.098Z,92503.91
2023-01-17T21:18:51.818Z,92494.41
2023-01-17T21:21:24.438Z,92484.44
2023-01-17T21:23:53.650Z,92480.72
2023-01-17T21:26:22.688Z,92475.78
2023-01-17T21:28:50.946Z,92471.91
2023-01-17T21:31:26.865Z,92464.94
2023-01-17T21:33:57.327Z,92471.13
2023-01-17T21:36:30.929Z,92456.81
2023-01-17T21:38:59.830Z,92442.09
2023-01-17T21:41:32.381Z,92429.16
2023-01-17T21:44:03.876Z,92432.88
2023-01-17T21:46:31.475Z,92428.88
2023-01-17T21:48:58.713Z,92422.00
2023-01-17T21:51:46.268Z,92398.88
2023-01-17T21:54:13.613Z,92395.81
2023-01-17T21:57:00.059Z,92397.38
2023-01-17T21:59:27.357Z,92390.50
2023-01-17T22:01:54.937Z,92386.84
2023-01-17T22:04:22.267Z,92376.53
2023-01-17T22:06:49.717Z,92372.19
2023-01-17T22:09:18.167Z,92383.28
2023-01-17T22:11:45.669Z,92382.19
2023-01-17T22:14:12.785Z,92375.97
2023-01-17T22:16:40.658Z,92379.91
2023-01-17T22:19:08.366Z,92368.53
2023-01-17T22:21:36.701Z,92368.22
2023-01-17T22:24:04.232Z,92365.91
2023-01-17T22:26:33.073Z,92371.69
2023-01-17T22:29:01.767Z,92370.25
2023-01-17T22:31:29.370Z,92361.28
2023-01-17T22:33:59.632Z,92354.97
2023-01-17T22:36:27.917Z,92342.97
2023-01-17T22:38:55.150Z,92345.63
2023-01-17T22:41:25.707Z,92334.09
2023-01-17T22:43:57.009Z,92320.84
2023-01-17T22:46:27.972Z,92314.59
2023-01-17T22:48:56.706Z,92303.81
2023-01-17T22:51:26.508Z,92289.69
2023-01-17T22:53:59.135Z,92283.63
2023-01-17T22:56:32.262Z,92279.72
2023-01-17T22:59:01.088Z,92274.28
2023-01-17T23:01:30.748Z,92271.72
2023-01-17T23:04:00.628Z,92272.16
2023-01-17T23:06:37.141Z,92262.25
2023-01-17T23:09:10.875Z,92250.84
2023-01-17T23:11:45.167Z,92241.06
2023-01-17T23:14:52.840Z,92232.41
2023-01-17T23:17:40.623Z,92228.09
2023-01-17T23:20:10.213Z,92223.56
2023-01-17T23:22:37.987Z,92224.53
2023-01-17T23:25:07.648Z,92217.66
2023-01-17T23:28:04.408Z,92216.91
2023-01-17T23:30:40.395Z,92200.63
2023-01-17T23:33:13.046Z,92209.44
2023-01-17T23:35:42.918Z,92204.75
2023-01-17T23:38:34.143Z,92190.41
2023-01-17T23:41:23.207Z,92188.06
2023-01-17T23:43:52.430Z,92172.03
2023-01-17T23:46:20.124Z,92172.53
2023-01-17T23:48:48.098Z,92180.38
2023-01-17T23:51:16.302Z,92182.34
2023-01-17T23:53:43.768Z,92181.53
2023-01-17T23:56:14.805Z,92179.94
2023-01-17T23:58:42.573Z,92169.94
